createdAt,value
2018-03-27T00:01:02.918Z,70.99
2018-03-27T00:02:08.616Z,71.04
2018-03-27T00:03:13.967Z,71.08
2018-03-27T00:04:20.489Z,71.01
2018-03-27T00:05:25.861Z,70.88
2018-03-27T00:06:31.325Z,70.73
2018-03-27T00:07:37.084Z,70.58
2018-03-27T00:08:42.621Z,70.64
2018-03-27T00:09:48.278Z,70.63
2018-03-27T00:10:53.727Z,70.54
2018-03-27T00:11:59.336Z,70.41
2018-03-27T00:13:05.254Z,70.23
2018-03-27T00:14:11.047Z,70.15
2018-03-27T00:15:17.559Z,70.06
2018-03-27T00:16:22.940Z,69.90
2018-03-27T00:17:28.390Z,69.77
2018-03-27T00:18:33.806Z,69.58
2018-03-27T00:19:39.542Z,69.43
2018-03-27T00:20:45.725Z,69.35
2018-03-27T00:21:51.229Z,69.23
2018-03-27T00:22:56.655Z,69.11
2018-03-27T00:24:02.430Z,69.09
2018-03-27T00:25:07.914Z,69.16
2018-03-27T00:26:13.478Z,69.21
2018-03-27T00:27:18.962Z,69.07
2018-03-27T00:28:29.524Z,69.17
2018-03-27T00:29:40.228Z,69.18
2018-03-27T00:30:50.578Z,69.09
2018-03-27T00:32:01.165Z,69.21
2018-03-27T00:33:12.276Z,69.13
2018-03-27T00:34:22.817Z,69.21
2018-03-27T00:35:34.065Z,69.28
2018-03-27T00:36:44.578Z,69.24
2018-03-27T00:37:55.337Z,69.13
2018-03-27T00:39:06.700Z,69.09
2018-03-27T00:40:17.616Z,69.09
2018-03-27T00:41:25.517Z,69.18
2018-03-27T00:42:31.129Z,69.25
2018-03-27T00:43:36.818Z,69.25
2018-03-27T00:44:43.818Z,69.24
2018-03-27T00:45:50.321Z,69.35
2018-03-27T00:46:56.632Z,69.73
2018-03-27T00:48:02.735Z,70.19
2018-03-27T00:49:08.871Z,70.52
2018-03-27T00:50:14.482Z,70.83
2018-03-27T00:51:20.352Z,70.94
2018-03-27T00:52:27.265Z,71.02
2018-03-27T00:53:32.878Z,71.12
2018-03-27T00:54:38.724Z,71.11
2018-03-27T00:55:44.625Z,71.09
2018-03-27T00:56:50.383Z,71.05
2018-03-27T00:57:56.131Z,70.90
2018-03-27T00:59:02.321Z,70.74
2018-03-27T01:00:08.802Z,70.62
2018-03-27T01:01:14.645Z,70.59
2018-03-27T01:02:21.421Z,70.69
2018-03-27T01:03:27.257Z,70.60
2018-03-27T01:04:33.883Z,70.59
2018-03-27T01:05:40.898Z,70.65
2018-03-27T01:06:46.501Z,70.68
2018-03-27T01:07:52.709Z,70.83
2018-03-27T01:08:58.482Z,70.88
2018-03-27T01:10:04.161Z,70.85
2018-03-27T01:11:09.999Z,70.72
2018-03-27T01:12:16.545Z,70.74
2018-03-27T01:13:22.428Z,70.88
2018-03-27T01:14:28.502Z,70.96
2018-03-27T01:15:34.188Z,70.96
2018-03-27T01:16:42.187Z,71.38
2018-03-27T01:17:49.188Z,71.78
2018-03-27T01:18:55.435Z,72.06
2018-03-27T01:20:01.353Z,72.22
2018-03-27T01:21:07.193Z,72.68
2018-03-27T01:22:13.249Z,72.92
2018-03-27T01:23:19.786Z,73.00
2018-03-27T01:24:25.648Z,73.02
2018-03-27T01:25:32.055Z,73.00
2018-03-27T01:26:37.875Z,72.89
2018-03-27T01:27:43.842Z,72.73
2018-03-27T01:28:49.859Z,72.71
2018-03-27T01:29:55.724Z,72.77
2018-03-27T01:31:01.957Z,72.89
2018-03-27T01:32:08.226Z,72.92
2018-03-27T01:33:14.932Z,72.87
2018-03-27T01:34:21.328Z,72.81
2018-03-27T01:35:27.281Z,72.75
2018-03-27T01:36:33.291Z,72.64
2018-03-27T01:37:41.054Z,72.63
2018-03-27T01:38:47.462Z,72.77
2018-03-27T01:39:53.046Z,72.93
2018-03-27T01:40:58.710Z,72.90
2018-03-27T01:42:04.739Z,73.03
2018-03-27T01:43:11.486Z,73.18
2018-03-27T01:44:18.120Z,73.25
2018-03-27T01:45:26.029Z,73.18
2018-03-27T01:46:32.400Z,73.17
2018-03-27T01:47:39.094Z,73.32
2018-03-27T01:48:44.768Z,73.56
2018-03-27T01:49:51.733Z,73.81
2018-03-27T01:50:57.496Z,74.03
2018-03-27T01:52:04.240Z,74.26
2018-03-27T01:53:10.630Z,74.45
2018-03-27T01:54:17.550Z,74.63
2018-03-27T01:55:23.613Z,74.79
2018-03-27T01:56:29.830Z,74.90
2018-03-27T01:57:36.382Z,74.91
2018-03-27T01:58:42.829Z,75.07
2018-03-27T01:59:48.986Z,75.14
2018-03-27T02:00:55.228Z,75.12
2018-03-27T02:02:01.036Z,74.96
2018-03-27T02:03:06.806Z,74.77
2018-03-27T02:04:14.260Z,74.70
2018-03-27T02:05:21.447Z,74.61
2018-03-27T02:06:29.632Z,74.43
2018-03-27T02:07:35.690Z,74.29
2018-03-27T02:08:42.111Z,74.17
2018-03-27T02:09:48.896Z,74.20
2018-03-27T02:10:53.792Z,74.13
2018-03-27T02:12:04.931Z,74.07
2018-03-27T02:13:15.576Z,74.11
2018-03-27T02:14:26.092Z,74.23
2018-03-27T02:15:37.078Z,74.47
2018-03-27T02:16:48.035Z,74.50
2018-03-27T02:17:59.016Z,74.59
2018-03-27T02:19:09.525Z,74.76
2018-03-27T02:20:20.106Z,74.77
2018-03-27T02:21:25.434Z,74.75
2018-03-27T02:22:31.689Z,74.81
2018-03-27T02:23:38.047Z,74.86
2018-03-27T02:24:45.059Z,74.92
2018-03-27T02:25:51.736Z,74.84
2018-03-27T02:26:58.202Z,74.81
2018-03-27T02:28:04.455Z,74.83
2018-03-27T02:29:10.252Z,74.99
2018-03-27T02:30:15.949Z,75.00
2018-03-27T02:31:22.716Z,75.13
2018-03-27T02:32:28.226Z,75.08
2018-03-27T02:33:34.902Z,75.10
2018-03-27T02:34:41.141Z,75.02
2018-03-27T02:35:46.884Z,74.97
2018-03-27T02:36:52.174Z,75.08
2018-03-27T02:37:57.897Z,75.08
2018-03-27T02:39:03.377Z,75.06
2018-03-27T02:40:08.626Z,75.09
2018-03-27T02:41:14.235Z,75.15
2018-03-27T02:42:19.753Z,75.11
2018-03-27T02:43:25.169Z,75.12
2018-03-27T02:44:30.801Z,75.26
2018-03-27T02:45:36.088Z,75.33
2018-03-27T02:46:41.568Z,75.46
2018-03-27T02:47:47.186Z,75.55
2018-03-27T02:48:53.089Z,75.62
2018-03-27T02:49:58.439Z,75.73
2018-03-27T02:51:04.531Z,75.81
2018-03-27T02:52:10.040Z,75.91
2018-03-27T02:53:15.827Z,75.85
2018-03-27T02:54:21.449Z,75.79
2018-03-27T02:55:26.748Z,75.75
2018-03-27T02:56:32.283Z,75.81
2018-03-27T02:57:38.563Z,75.75
2018-03-27T02:58:44.016Z,75.66
2018-03-27T02:59:49.479Z,75.88
2018-03-27T03:00:54.825Z,75.91
2018-03-27T03:02:00.256Z,75.82
2018-03-27T03:03:05.472Z,75.65
2018-03-27T03:04:10.702Z,75.39
2018-03-27T03:05:15.984Z,75.37
2018-03-27T03:06:21.457Z,75.58
2018-03-27T03:07:27.013Z,75.71
2018-03-27T03:08:32.452Z,75.75
2018-03-27T03:09:38.313Z,75.83
2018-03-27T03:10:43.681Z,75.96
2018-03-27T03:11:49.219Z,75.92
2018-03-27T03:12:54.548Z,75.90
2018-03-27T03:13:59.913Z,75.93
2018-03-27T03:15:05.063Z,76.04
2018-03-27T03:16:10.786Z,75.99
2018-03-27T03:17:16.091Z,76.00
2018-03-27T03:18:21.416Z,76.01
2018-03-27T03:19:26.752Z,76.25
2018-03-27T03:20:31.921Z,76.39
2018-03-27T03:21:37.224Z,76.45
2018-03-27T03:22:42.941Z,76.54
2018-03-27T03:23:48.453Z,76.63
2018-03-27T03:24:54.104Z,76.76
2018-03-27T03:25:59.270Z,76.78
2018-03-27T03:27:04.714Z,76.77
2018-03-27T03:28:09.959Z,76.87
2018-03-27T03:29:15.715Z,76.87
2018-03-27T03:30:21.122Z,76.93
2018-03-27T03:31:26.970Z,77.03
2018-03-27T03:32:32.510Z,76.93
2018-03-27T03:33:38.118Z,76.94
2018-03-27T03:34:43.724Z,76.94
2018-03-27T03:35:49.321Z,76.91
2018-03-27T03:36:54.894Z,76.82
2018-03-27T03:38:00.302Z,76.76
2018-03-27T03:39:06.052Z,76.75
2018-03-27T03:40:11.537Z,76.80
2018-03-27T03:41:16.868Z,76.80
2018-03-27T03:42:22.828Z,76.83
2018-03-27T03:43:28.158Z,76.82
2018-03-27T03:44:33.241Z,76.94
2018-03-27T03:45:38.606Z,76.95
2018-03-27T03:46:44.014Z,77.15
2018-03-27T03:47:49.204Z,77.06
2018-03-27T03:48:54.927Z,76.99
2018-03-27T03:50:00.241Z,76.97
2018-03-27T03:51:05.619Z,77.03
2018-03-27T03:52:11.038Z,76.85
2018-03-27T03:53:16.381Z,76.86
2018-03-27T03:54:21.990Z,76.88
2018-03-27T03:55:27.701Z,76.83
2018-03-27T03:56:33.446Z,76.69
2018-03-27T03:57:38.993Z,76.70
2018-03-27T03:58:44.374Z,76.73
2018-03-27T03:59:49.827Z,76.87
2018-03-27T04:00:55.228Z,76.96
2018-03-27T04:02:01.024Z,77.05
2018-03-27T04:03:07.003Z,77.19
2018-03-27T04:04:12.420Z,77.34
2018-03-27T04:05:18.139Z,77.34
2018-03-27T04:06:23.823Z,77.32
2018-03-27T04:07:29.419Z,77.29
2018-03-27T04:08:35.382Z,77.35
2018-03-27T04:09:40.629Z,77.40
2018-03-27T04:10:45.944Z,77.33
2018-03-27T04:11:51.619Z,77.25
2018-03-27T04:12:57.337Z,77.31
2018-03-27T04:14:02.838Z,77.47
2018-03-27T04:15:08.786Z,77.53
2018-03-27T04:16:14.470Z,77.60
2018-03-27T04:17:20.112Z,77.62
2018-03-27T04:18:25.725Z,77.54
2018-03-27T04:19:31.094Z,77.47
2018-03-27T04:20:36.814Z,77.59
2018-03-27T04:21:42.566Z,77.65
2018-03-27T04:22:48.042Z,77.62
2018-03-27T04:23:53.724Z,77.59
2018-03-27T04:24:59.146Z,77.66
2018-03-27T04:26:05.075Z,77.66
2018-03-27T04:27:11.391Z,77.63
2018-03-27T04:28:16.889Z,77.48
2018-03-27T04:29:22.449Z,77.60
2018-03-27T04:30:28.119Z,77.65
2018-03-27T04:31:33.802Z,77.75
2018-03-27T04:32:39.710Z,77.78
2018-03-27T04:33:46.001Z,77.85
2018-03-27T04:34:51.529Z,77.89
2018-03-27T04:35:57.125Z,77.87
2018-03-27T04:37:02.427Z,77.78
2018-03-27T04:38:07.731Z,77.88
2018-03-27T04:39:12.937Z,77.94
2018-03-27T04:40:18.341Z,77.91
2018-03-27T04:41:23.476Z,77.87
2018-03-27T04:42:28.718Z,77.89
2018-03-27T04:43:34.488Z,77.93
2018-03-27T04:44:40.035Z,77.98
2018-03-27T04:45:45.515Z,77.99
2018-03-27T04:46:51.208Z,77.99
2018-03-27T04:47:56.808Z,78.02
2018-03-27T04:49:02.372Z,78.01
2018-03-27T04:50:08.112Z,78.00
2018-03-27T04:51:14.201Z,78.05
2018-03-27T04:52:19.855Z,78.09
2018-03-27T04:53:25.669Z,78.04
2018-03-27T04:54:31.415Z,78.03
2018-03-27T04:55:37.394Z,77.99
2018-03-27T04:56:43.152Z,77.97
2018-03-27T04:57:48.983Z,78.02
2018-03-27T04:58:54.976Z,78.03
2018-03-27T05:00:00.717Z,78.01
2018-03-27T05:01:06.266Z,78.07
2018-03-27T05:02:11.733Z,78.11
2018-03-27T05:03:17.255Z,78.24
2018-03-27T05:04:22.800Z,78.25
2018-03-27T05:05:28.158Z,78.32
2018-03-27T05:06:34.435Z,78.34
2018-03-27T05:07:40.081Z,78.34
2018-03-27T05:08:45.688Z,78.27
2018-03-27T05:09:51.637Z,78.30
2018-03-27T05:10:57.536Z,78.27
2018-03-27T05:12:03.307Z,78.17
2018-03-27T05:13:09.235Z,78.18
2018-03-27T05:14:14.770Z,78.29
2018-03-27T05:15:20.374Z,78.27
2018-03-27T05:16:26.225Z,78.34
2018-03-27T05:17:31.841Z,78.49
2018-03-27T05:18:37.651Z,78.55
2018-03-27T05:19:43.595Z,78.51
2018-03-27T05:20:49.561Z,78.42
2018-03-27T05:21:55.327Z,78.41
2018-03-27T05:23:01.070Z,78.38
2018-03-27T05:24:06.780Z,78.38
2018-03-27T05:25:12.913Z,78.35
2018-03-27T05:26:18.681Z,78.34
2018-03-27T05:27:24.481Z,78.49
2018-03-27T05:28:30.187Z,78.59
2018-03-27T05:29:36.180Z,78.61
2018-03-27T05:30:42.225Z,78.45
2018-03-27T05:31:48.466Z,78.44
2018-03-27T05:32:54.600Z,78.39
2018-03-27T05:34:00.417Z,78.42
2018-03-27T05:35:06.819Z,78.42
2018-03-27T05:36:12.960Z,78.26
2018-03-27T05:37:18.935Z,78.30
2018-03-27T05:38:25.143Z,78.26
2018-03-27T05:39:30.825Z,78.33
2018-03-27T05:40:36.906Z,78.35
2018-03-27T05:41:42.714Z,78.32
2018-03-27T05:42:48.552Z,78.29
2018-03-27T05:43:55.249Z,78.22
2018-03-27T05:45:01.688Z,78.33
2018-03-27T05:46:07.480Z,78.33
2018-03-27T05:47:13.150Z,78.22
2018-03-27T05:48:19.198Z,78.27
2018-03-27T05:49:25.012Z,78.29
2018-03-27T05:50:30.892Z,78.26
2018-03-27T05:51:37.592Z,78.22
2018-03-27T05:52:43.364Z,78.15
2018-03-27T05:53:49.484Z,78.12
2018-03-27T05:54:56.907Z,78.21
2018-03-27T05:56:02.840Z,78.18
2018-03-27T05:57:08.689Z,78.16
2018-03-27T05:58:15.095Z,78.06
2018-03-27T05:59:20.945Z,77.97
2018-03-27T06:00:27.182Z,77.93
2018-03-27T06:01:32.938Z,77.99
2018-03-27T06:02:38.945Z,78.00
2018-03-27T06:03:45.492Z,77.99
2018-03-27T06:04:51.613Z,77.93
2018-03-27T06:05:58.363Z,77.78
2018-03-27T06:07:04.269Z,77.68
2018-03-27T06:08:10.132Z,77.65
2018-03-27T06:09:16.550Z,77.58
2018-03-27T06:10:22.594Z,77.52
2018-03-27T06:11:28.434Z,77.44
2018-03-27T06:12:34.170Z,77.38
2018-03-27T06:13:40.108Z,77.26
2018-03-27T06:14:46.246Z,77.33
2018-03-27T06:15:52.290Z,77.26
2018-03-27T06:16:58.179Z,77.13
2018-03-27T06:18:04.353Z,77.29
2018-03-27T06:19:10.095Z,77.43
2018-03-27T06:20:16.132Z,77.43
2018-03-27T06:21:22.571Z,77.31
2018-03-27T06:22:28.394Z,77.23
2018-03-27T06:23:34.181Z,77.19
2018-03-27T06:24:40.184Z,77.18
2018-03-27T06:25:46.026Z,77.25
2018-03-27T06:26:52.070Z,77.26
2018-03-27T06:27:58.338Z,77.18
2018-03-27T06:29:04.106Z,77.21
2018-03-27T06:30:09.986Z,77.27
2018-03-27T06:31:15.957Z,77.25
2018-03-27T06:32:21.768Z,77.17
2018-03-27T06:33:28.481Z,77.09
2018-03-27T06:34:34.596Z,77.03
2018-03-27T06:35:40.784Z,76.99
2018-03-27T06:36:46.788Z,76.95
2018-03-27T06:37:52.530Z,76.83
2018-03-27T06:38:58.216Z,76.74
2018-03-27T06:40:03.725Z,76.71
2018-03-27T06:41:09.875Z,76.72
2018-03-27T06:42:15.545Z,76.67
2018-03-27T06:43:21.078Z,76.69
2018-03-27T06:44:26.670Z,76.61
2018-03-27T06:45:32.366Z,76.49
2018-03-27T06:46:38.146Z,76.49
2018-03-27T06:47:44.148Z,76.74
2018-03-27T06:48:49.833Z,76.84
2018-03-27T06:49:55.227Z,76.83
2018-03-27T06:51:00.820Z,76.78
2018-03-27T06:52:06.368Z,76.72
2018-03-27T06:53:11.976Z,76.76
2018-03-27T06:54:18.076Z,76.74
2018-03-27T06:55:23.621Z,76.66
2018-03-27T06:56:29.266Z,76.52
2018-03-27T06:57:34.969Z,76.48
2018-03-27T06:58:40.436Z,76.25
2018-03-27T06:59:46.122Z,76.13
2018-03-27T07:00:52.217Z,76.17
2018-03-27T07:01:57.603Z,76.05
2018-03-27T07:03:03.148Z,75.92
2018-03-27T07:04:08.627Z,75.85
2018-03-27T07:05:14.013Z,75.69
2018-03-27T07:06:19.611Z,75.56
2018-03-27T07:07:25.575Z,75.57
2018-03-27T07:08:31.167Z,75.55
2018-03-27T07:09:36.780Z,75.49
2018-03-27T07:10:42.458Z,75.36
2018-03-27T07:11:48.206Z,75.29
2018-03-27T07:12:53.941Z,75.41
2018-03-27T07:14:00.166Z,75.23
2018-03-27T07:15:05.921Z,75.04
2018-03-27T07:16:12.048Z,74.89
2018-03-27T07:17:17.954Z,74.56
2018-03-27T07:18:23.372Z,74.23
2018-03-27T07:19:28.955Z,73.98
2018-03-27T07:20:34.881Z,73.52
2018-03-27T07:21:40.482Z,72.96
2018-03-27T07:22:45.962Z,72.37
2018-03-27T07:23:51.523Z,71.97
2018-03-27T07:24:57.327Z,71.34
2018-03-27T07:26:02.920Z,70.95
2018-03-27T07:27:08.784Z,70.98
2018-03-27T07:28:14.442Z,70.78
2018-03-27T07:29:20.109Z,70.49
2018-03-27T07:30:25.695Z,70.51
2018-03-27T07:31:31.239Z,70.20
2018-03-27T07:32:36.600Z,70.08
2018-03-27T07:33:42.996Z,70.18
2018-03-27T07:34:48.565Z,69.91
2018-03-27T07:35:54.114Z,69.59
2018-03-27T07:36:59.782Z,69.10
2018-03-27T07:38:05.348Z,68.72
2018-03-27T07:39:11.301Z,68.61
2018-03-27T07:40:16.944Z,69.12
2018-03-27T07:41:22.801Z,69.64
2018-03-27T07:42:28.252Z,69.84
2018-03-27T07:43:34.188Z,70.02
2018-03-27T07:44:39.906Z,69.86
2018-03-27T07:45:45.874Z,69.73
2018-03-27T07:46:51.456Z,69.70
2018-03-27T07:47:56.842Z,69.47
2018-03-27T07:49:02.774Z,68.94
2018-03-27T07:50:08.416Z,67.91
2018-03-27T07:51:14.299Z,67.61
2018-03-27T07:52:20.990Z,67.51
2018-03-27T07:53:26.279Z,67.24
2018-03-27T07:54:31.653Z,67.36
2018-03-27T07:55:37.069Z,66.95
2018-03-27T07:56:42.370Z,66.78
2018-03-27T07:57:47.591Z,66.78
2018-03-27T07:58:53.399Z,66.81
2018-03-27T07:59:58.960Z,66.59
2018-03-27T08:01:04.409Z,66.30
2018-03-27T08:02:09.697Z,66.41
2018-03-27T08:03:15.312Z,66.68
2018-03-27T08:04:21.183Z,66.63
2018-03-27T08:05:26.544Z,66.81
2018-03-27T08:06:31.723Z,66.41
2018-03-27T08:07:37.165Z,66.29
2018-03-27T08:08:42.489Z,66.13
2018-03-27T08:09:47.885Z,66.15
2018-03-27T08:10:53.655Z,66.07
2018-03-27T08:11:59.082Z,65.62
2018-03-27T08:13:04.607Z,65.39
2018-03-27T08:14:10.163Z,65.46
2018-03-27T08:15:15.623Z,65.40
2018-03-27T08:16:20.976Z,65.26
2018-03-27T08:17:26.745Z,64.96
2018-03-27T08:18:32.403Z,64.68
2018-03-27T08:19:37.848Z,64.17
2018-03-27T08:20:43.301Z,64.28
2018-03-27T08:21:48.838Z,63.86
2018-03-27T08:22:54.287Z,63.21
2018-03-27T08:23:59.979Z,62.58
2018-03-27T08:25:05.350Z,61.97
2018-03-27T08:26:10.804Z,61.25
2018-03-27T08:27:16.231Z,61.61
2018-03-27T08:28:21.686Z,61.25
2018-03-27T08:29:27.091Z,61.24
2018-03-27T08:30:32.778Z,61.33
2018-03-27T08:31:38.281Z,60.84
2018-03-27T08:32:43.981Z,60.53
2018-03-27T08:33:49.562Z,60.46
2018-03-27T08:34:55.278Z,59.70
2018-03-27T08:36:00.773Z,58.83
2018-03-27T08:37:06.320Z,59.12
2018-03-27T08:38:12.158Z,59.19
2018-03-27T08:39:17.557Z,59.39
2018-03-27T08:40:23.037Z,59.48
2018-03-27T08:41:28.389Z,59.31
2018-03-27T08:42:33.784Z,58.87
2018-03-27T08:43:39.541Z,58.52
2018-03-27T08:44:44.917Z,58.19
2018-03-27T08:45:50.312Z,57.98
2018-03-27T08:46:55.729Z,57.78
2018-03-27T08:48:01.065Z,57.96
2018-03-27T08:49:06.525Z,58.00
2018-03-27T08:50:12.047Z,57.91
2018-03-27T08:51:17.324Z,57.68
2018-03-27T08:52:22.559Z,57.57
2018-03-27T08:53:27.944Z,57.11
2018-03-27T08:54:33.304Z,56.68
2018-03-27T08:55:39.062Z,55.94
2018-03-27T08:56:44.875Z,55.43
2018-03-27T08:57:51.176Z,55.14
2018-03-27T08:58:56.500Z,54.33
2018-03-27T09:00:01.972Z,53.09
2018-03-27T09:01:07.946Z,52.41
2018-03-27T09:02:13.669Z,51.76
2018-03-27T09:03:19.081Z,51.60
2018-03-27T09:04:24.406Z,51.16
2018-03-27T09:05:29.899Z,50.50
2018-03-27T09:06:35.302Z,50.34
2018-03-27T09:07:40.900Z,50.34
2018-03-27T09:08:46.337Z,49.43
2018-03-27T09:09:51.870Z,49.47
2018-03-27T09:10:57.329Z,49.31
2018-03-27T09:12:02.582Z,49.38
2018-03-27T09:13:07.944Z,48.93
2018-03-27T09:14:13.842Z,48.80
2018-03-27T09:15:19.326Z,48.64
2018-03-27T09:16:24.878Z,48.33
2018-03-27T09:17:30.131Z,48.18
2018-03-27T09:18:35.583Z,47.55
2018-03-27T09:19:40.999Z,46.90
2018-03-27T09:20:46.392Z,46.22
2018-03-27T09:21:51.701Z,45.62
2018-03-27T09:22:57.100Z,44.63
2018-03-27T09:24:02.455Z,44.33
2018-03-27T09:25:07.849Z,44.25
2018-03-27T09:26:13.648Z,43.71
2018-03-27T09:27:19.041Z,44.09
2018-03-27T09:28:24.358Z,44.08
2018-03-27T09:29:29.694Z,43.63
2018-03-27T09:30:35.856Z,44.03
2018-03-27T09:31:41.110Z,45.20
2018-03-27T09:32:46.839Z,45.03
2018-03-27T09:33:52.038Z,44.31
2018-03-27T09:34:57.300Z,44.91
2018-03-27T09:36:02.603Z,45.24
2018-03-27T09:37:07.781Z,45.76
2018-03-27T09:38:12.992Z,45.75
2018-03-27T09:39:18.608Z,45.52
2018-03-27T09:40:23.912Z,45.23
2018-03-27T09:41:29.201Z,45.52
2018-03-27T09:42:34.627Z,45.28
2018-03-27T09:43:40.019Z,45.10
2018-03-27T09:44:45.166Z,44.96
2018-03-27T09:45:50.815Z,44.55
2018-03-27T09:46:56.154Z,43.93
2018-03-27T09:48:01.356Z,43.30
2018-03-27T09:49:06.822Z,43.47
2018-03-27T09:50:12.138Z,43.74
2018-03-27T09:51:17.342Z,43.30
2018-03-27T09:52:23.013Z,43.07
2018-03-27T09:53:28.177Z,42.84
2018-03-27T09:54:33.317Z,42.72
2018-03-27T09:55:38.454Z,42.90
2018-03-27T09:56:43.640Z,43.38
2018-03-27T09:57:48.780Z,43.70
2018-03-27T09:58:54.322Z,43.89
2018-03-27T09:59:59.591Z,44.01
2018-03-27T10:01:08.739Z,44.13
2018-03-27T10:02:13.928Z,43.91
2018-03-27T10:03:19.164Z,43.78
2018-03-27T10:04:24.355Z,43.66
2018-03-27T10:05:29.971Z,43.18
2018-03-27T10:06:35.230Z,43.28
2018-03-27T10:07:40.492Z,43.31
2018-03-27T10:08:45.815Z,43.57
2018-03-27T10:09:51.139Z,43.50
2018-03-27T10:10:57.185Z,43.31
2018-03-27T10:12:02.317Z,43.03
2018-03-27T10:13:07.551Z,42.91
2018-03-27T10:14:12.785Z,42.71
2018-03-27T10:15:17.969Z,42.44
2018-03-27T10:16:23.251Z,42.29
2018-03-27T10:17:28.687Z,42.33
2018-03-27T10:18:33.909Z,42.36
2018-03-27T10:19:38.939Z,42.39
2018-03-27T10:20:44.059Z,42.19
2018-03-27T10:21:49.395Z,42.14
2018-03-27T10:22:55.495Z,41.84
2018-03-27T10:24:01.072Z,41.74
2018-03-27T10:25:06.270Z,41.51
2018-03-27T10:26:11.334Z,41.52
2018-03-27T10:27:16.514Z,41.45
2018-03-27T10:28:21.657Z,41.32
2018-03-27T10:29:26.837Z,41.10
2018-03-27T10:30:32.316Z,40.95
2018-03-27T10:31:38.564Z,40.72
2018-03-27T10:32:43.807Z,40.58
2018-03-27T10:33:49.181Z,40.61
2018-03-27T10:34:54.310Z,41.15
2018-03-27T10:36:00.208Z,41.35
2018-03-27T10:37:05.910Z,41.52
2018-03-27T10:38:11.271Z,41.66
2018-03-27T10:39:16.690Z,41.61
2018-03-27T10:40:21.975Z,41.63
2018-03-27T10:41:27.259Z,41.32
2018-03-27T10:42:32.627Z,41.55
2018-03-27T10:43:38.335Z,41.76
2018-03-27T10:44:43.734Z,41.27
2018-03-27T10:45:49.121Z,41.32
2018-03-27T10:46:54.409Z,41.29
2018-03-27T10:47:59.688Z,41.22
2018-03-27T10:49:05.590Z,41.13
2018-03-27T10:50:11.304Z,41.16
2018-03-27T10:51:16.605Z,41.09
2018-03-27T10:52:21.848Z,41.10
2018-03-27T10:53:27.144Z,41.08
2018-03-27T10:54:32.484Z,40.97
2018-03-27T10:55:37.840Z,40.93
2018-03-27T10:56:43.482Z,40.56
2018-03-27T10:57:48.823Z,40.17
2018-03-27T10:58:54.080Z,39.92
2018-03-27T10:59:59.260Z,39.78
2018-03-27T11:01:04.512Z,39.84
2018-03-27T11:02:09.762Z,39.72
2018-03-27T11:03:15.458Z,39.77
2018-03-27T11:04:20.756Z,39.98
2018-03-27T11:05:26.001Z,40.04
2018-03-27T11:06:31.560Z,39.95
2018-03-27T11:07:36.852Z,40.15
2018-03-27T11:08:42.185Z,40.54
2018-03-27T11:09:47.921Z,40.88
2018-03-27T11:10:53.118Z,41.18
2018-03-27T11:11:58.383Z,41.30
2018-03-27T11:13:03.630Z,41.39
2018-03-27T11:14:08.893Z,41.48
2018-03-27T11:15:13.965Z,41.72
2018-03-27T11:16:19.617Z,42.04
2018-03-27T11:17:24.705Z,42.44
2018-03-27T11:18:29.875Z,42.65
2018-03-27T11:19:35.199Z,42.51
2018-03-27T11:20:40.457Z,42.49
2018-03-27T11:21:45.651Z,42.45
2018-03-27T11:22:51.279Z,42.61
2018-03-27T11:23:56.454Z,42.62
2018-03-27T11:25:02.244Z,42.45
2018-03-27T11:26:07.393Z,42.41
2018-03-27T11:27:12.504Z,42.59
2018-03-27T11:28:17.377Z,43.03
2018-03-27T11:29:22.612Z,43.13
2018-03-27T11:30:27.763Z,43.11
2018-03-27T11:31:33.035Z,43.17
2018-03-27T11:32:38.334Z,43.17
2018-03-27T11:33:43.464Z,43.35
2018-03-27T11:34:48.699Z,43.36
2018-03-27T11:35:54.112Z,43.55
2018-03-27T11:36:59.474Z,43.78
2018-03-27T11:38:04.772Z,43.79
2018-03-27T11:39:10.709Z,43.73
2018-03-27T11:40:15.979Z,43.96
2018-03-27T11:41:21.301Z,44.29
2018-03-27T11:42:26.996Z,44.59
2018-03-27T11:43:32.280Z,44.76
2018-03-27T11:44:37.529Z,44.85
2018-03-27T11:45:42.804Z,44.87
2018-03-27T11:46:47.994Z,44.94
2018-03-27T11:47:53.200Z,45.00
2018-03-27T11:48:59.486Z,45.04
2018-03-27T11:50:04.863Z,45.13
2018-03-27T11:51:10.048Z,45.17
2018-03-27T11:52:15.419Z,45.36
2018-03-27T11:53:20.815Z,45.59
2018-03-27T11:54:26.237Z,45.75
2018-03-27T11:55:31.745Z,45.92
2018-03-27T11:56:36.917Z,46.06
2018-03-27T11:57:42.204Z,46.29
2018-03-27T11:58:47.695Z,46.40
2018-03-27T11:59:52.942Z,46.50
2018-03-27T12:00:58.213Z,46.75
2018-03-27T12:02:03.912Z,46.94
2018-03-27T12:03:09.236Z,47.05
2018-03-27T12:04:14.433Z,47.14
2018-03-27T12:05:19.706Z,46.98
2018-03-27T12:06:25.026Z,46.89
2018-03-27T12:07:30.292Z,46.74
2018-03-27T12:08:36.166Z,46.77
2018-03-27T12:09:41.596Z,46.92
2018-03-27T12:10:46.992Z,47.17
2018-03-27T12:11:52.110Z,47.28
2018-03-27T12:12:57.278Z,47.43
2018-03-27T12:14:03.258Z,47.56
2018-03-27T12:15:08.919Z,47.56
2018-03-27T12:16:14.168Z,47.72
2018-03-27T12:17:19.460Z,48.02
2018-03-27T12:18:24.578Z,48.18
2018-03-27T12:19:29.881Z,48.31
2018-03-27T12:20:35.036Z,48.42
2018-03-27T12:21:40.583Z,48.41
2018-03-27T12:22:45.868Z,48.33
2018-03-27T12:23:51.058Z,48.30
2018-03-27T12:24:56.338Z,48.27
2018-03-27T12:26:01.727Z,48.35
2018-03-27T12:27:06.945Z,48.42
2018-03-27T12:28:12.430Z,48.36
2018-03-27T12:29:17.696Z,48.29
2018-03-27T12:30:22.793Z,48.44
2018-03-27T12:31:27.863Z,48.67
2018-03-27T12:32:33.518Z,48.82
2018-03-27T12:33:38.612Z,48.92
2018-03-27T12:34:44.098Z,48.92
2018-03-27T12:35:49.285Z,49.04
2018-03-27T12:36:54.739Z,49.52
2018-03-27T12:37:59.978Z,49.72
2018-03-27T12:39:05.440Z,49.70
2018-03-27T12:40:10.584Z,49.72
2018-03-27T12:41:16.040Z,49.85
2018-03-27T12:42:21.408Z,50.13
2018-03-27T12:43:26.538Z,50.17
2018-03-27T12:44:31.670Z,50.21
2018-03-27T12:45:36.929Z,50.46
2018-03-27T12:46:42.102Z,50.46
2018-03-27T12:47:47.632Z,50.47
2018-03-27T12:48:53.884Z,50.60
2018-03-27T12:49:59.405Z,50.85
2018-03-27T12:51:05.037Z,50.99
2018-03-27T12:52:11.547Z,51.16
2018-03-27T12:53:16.870Z,51.37
2018-03-27T12:54:22.532Z,51.42
2018-03-27T12:55:27.667Z,51.70
2018-03-27T12:56:32.748Z,51.86
2018-03-27T12:57:38.041Z,51.92
2018-03-27T12:58:43.227Z,51.98
2018-03-27T12:59:48.324Z,52.22
2018-03-27T13:00:54.435Z,52.38
2018-03-27T13:01:59.772Z,52.50
2018-03-27T13:03:05.028Z,52.55
2018-03-27T13:04:10.399Z,52.58
2018-03-27T13:05:15.610Z,52.65
2018-03-27T13:06:20.943Z,52.70
2018-03-27T13:07:26.687Z,52.73
2018-03-27T13:08:32.440Z,52.78
2018-03-27T13:09:38.333Z,52.85
2018-03-27T13:10:44.973Z,53.06
2018-03-27T13:11:50.761Z,53.25
2018-03-27T13:12:56.132Z,53.18
2018-03-27T13:14:01.599Z,53.27
2018-03-27T13:15:06.876Z,53.57
2018-03-27T13:16:12.201Z,53.66
2018-03-27T13:17:17.533Z,53.60
2018-03-27T13:18:22.835Z,53.39
2018-03-27T13:19:28.178Z,53.35
2018-03-27T13:20:34.382Z,53.17
2018-03-27T13:21:39.715Z,52.96
2018-03-27T13:22:44.945Z,52.75
2018-03-27T13:23:50.195Z,52.72
2018-03-27T13:24:55.473Z,52.90
2018-03-27T13:26:02.201Z,53.03
2018-03-27T13:27:07.640Z,53.15
2018-03-27T13:28:12.874Z,53.25
2018-03-27T13:29:18.903Z,53.49
2018-03-27T13:30:24.168Z,53.49
2018-03-27T13:31:29.422Z,53.57
2018-03-27T13:32:35.202Z,53.63
2018-03-27T13:33:40.405Z,53.76
2018-03-27T13:34:45.617Z,53.91
2018-03-27T13:35:50.944Z,53.99
2018-03-27T13:36:56.789Z,53.95
2018-03-27T13:38:02.604Z,54.22
2018-03-27T13:39:07.955Z,54.25
2018-03-27T13:40:13.156Z,54.24
2018-03-27T13:41:18.300Z,54.14
2018-03-27T13:42:23.494Z,54.00
2018-03-27T13:43:28.640Z,53.68
2018-03-27T13:44:34.212Z,53.57
2018-03-27T13:45:39.358Z,53.40
2018-03-27T13:46:44.570Z,53.25
2018-03-27T13:47:49.810Z,53.24
2018-03-27T13:48:55.125Z,53.15
2018-03-27T13:50:00.318Z,53.09
2018-03-27T13:51:05.799Z,53.24
2018-03-27T13:52:12.157Z,53.28
2018-03-27T13:53:17.235Z,53.23
2018-03-27T13:54:22.582Z,53.30
2018-03-27T13:55:27.727Z,53.39
2018-03-27T13:56:32.909Z,53.41
2018-03-27T13:57:38.542Z,53.47
2018-03-27T13:58:44.239Z,53.42
2018-03-27T13:59:49.508Z,53.41
2018-03-27T14:00:55.411Z,53.47
2018-03-27T14:02:00.691Z,53.52
2018-03-27T14:03:07.713Z,53.66
2018-03-27T14:04:13.455Z,53.79
2018-03-27T14:05:18.690Z,53.79
2018-03-27T14:06:23.934Z,53.81
2018-03-27T14:07:29.275Z,53.77